Time;durP1;ratioP1;P1;durP2;ratioP2;P2;SDS_P1;SDS_P2;PMS_P1;PMS_P2;Temp;Humidity;BMP_temperature;BMP_pressure;BME280_temperature;BME280_humidity;BME280_pressure;Samples;Min_cycle;Max_cycle;Signal;HPM_P1;HPM_P2
2021/07/13 00:02:05;;;;;;;7.72;2.65;;;21.10;70.20;;;23.67;58.43;100870.81;5004399;28;97852;-75
2021/07/13 00:04:35;;;;;;;5.03;2.45;;;21.10;70.30;;;23.68;58.34;100874.31;4999266;28;97858;-74
2021/07/13 00:07:05;;;;;;;3.10;2.05;;;21.10;70.30;;;23.58;58.46;100878.59;5000370;28;96812;-75
2021/07/13 00:09:34;;;;;;;4.15;2.97;;;21.00;70.30;;;23.64;58.61;100879.78;5021923;27;97326;-75
2021/07/13 00:12:08;;;;;;;1.58;1.48;;;21.00;70.30;;;23.55;58.44;100881.31;5001982;28;97173;-75
2021/07/13 00:14:37;;;;;;;15.95;2.13;;;21.00;70.30;;;23.58;58.30;100888.75;5001929;28;97446;-75
2021/07/13 00:17:06;;;;;;;1.23;1.13;;;21.00;70.40;;;23.64;58.37;100889.94;5004537;28;96836;-74
2021/07/13 00:19:36;;;;;;;8.77;2.28;;;21.00;70.40;;;23.65;58.26;100889.56;5000688;28;97041;-75
2021/07/13 00:22:05;;;;;;;1.83;1.73;;;20.90;70.40;;;23.65;57.84;100897.78;5004108;28;99420;-75
2021/07/13 00:24:34;;;;;;;3.78;2.70;;;20.90;70.40;;;23.57;58.53;100890.72;4999914;28;97772;-74
2021/07/13 00:27:05;;;;;;;2.95;1.67;;;20.90;70.40;;;23.56;58.47;100885.59;5005654;28;97218;-74
2021/07/13 00:29:35;;;;;;;4.60;2.25;;;20.90;70.50;;;23.55;58.37;100876.59;5003958;28;96968;-74
2021/07/13 00:32:06;;;;;;;5.72;2.22;;;20.80;70.40;;;23.47;58.48;100879.72;5004732;28;97024;-75
2021/07/13 00:34:34;;;;;;;6.60;2.47;;;20.80;70.40;;;23.50;58.32;100878.94;5019736;27;96831;-75
2021/07/13 00:37:05;;;;;;;6.78;3.25;;;20.80;70.50;;;23.45;58.49;100890.25;5020251;27;96834;-74
2021/07/13 00:39:33;;;;;;;3.20;2.65;;;20.70;70.50;;;23.39;58.75;100892.56;5001641;28;97037;-74
2021/07/13 00:42:04;;;;;;;5.03;2.80;;;20.70;70.50;;;23.28;58.81;100894.47;5002399;28;96768;-74
2021/07/13 00:44:34;;;;;;;5.05;2.92;;;20.70;70.50;;;23.21;59.04;100894.41;5002702;28;98431;-75
2021/07/13 00:47:05;;;;;;;7.45;2.08;;;20.70;70.60;;;23.15;59.17;100889.72;5003555;28;96932;-74
2021/07/13 00:49:35;;;;;;;4.03;1.95;;;20.70;70.60;;;23.23;58.64;100883.09;4998001;28;96948;-75
2021/07/13 00:52:05;;;;;;;8.68;4.03;;;20.60;70.70;;;23.24;58.81;100885.44;5000060;28;96935;-74
2021/07/13 00:54:36;;;;;;;8.30;2.72;;;20.60;70.70;;;23.27;58.56;100875.69;4998234;28;96854;-74
2021/07/13 00:57:08;;;;;;;3.38;2.85;;;20.60;70.80;;;23.20;58.67;100875.66;5001461;28;97030;-75
2021/07/13 00:59:39;;;;;;;4.05;1.75;;;20.60;70.80;;;23.21;58.57;100878.00;5006260;28;96868;-75
2021/07/13 01:02:13;;;;;;;3.03;1.52;;;20.50;70.80;;;23.18;58.66;100880.75;4998255;28;97083;-74
2021/07/13 01:04:48;;;;;;;4.50;2.42;;;20.50;70.80;;;23.15;58.63;100876.81;4999226;28;97901;-74
2021/07/13 01:07:32;;;;;;;2.53;1.75;;;20.50;70.90;;;23.06;58.97;100879.06;5001045;28;96822;-75
2021/07/13 01:10:13;;;;;;;2.72;2.53;;;20.50;70.90;;;23.03;58.87;100881.78;5000312;28;96819;-75
2021/07/13 01:13:03;;;;;;;5.78;2.97;;;20.50;71.00;;;23.02;59.28;100874.75;5019121;27;97892;-75
2021/07/13 01:15:46;;;;;;;2.65;2.00;;;20.40;71.00;;;23.05;59.05;100890.38;5000786;28;96884;-75
2021/07/13 01:18:24;;;;;;;5.47;1.98;;;20.40;71.00;;;23.05;58.95;100890.38;5001266;28;96777;-74
2021/07/13 01:21:21;;;;;;;2.05;1.85;;;20.40;71.00;;;23.06;59.25;100898.22;5006875;28;97063;-75
2021/07/13 01:24:15;;;;;;;3.58;2.03;;;20.40;71.00;;;23.07;58.95;100899.78;4996886;28;96908;-74
2021/07/13 01:27:06;;;;;;;5.03;2.78;;;20.40;71.00;;;23.10;58.56;100898.22;5014855;27;96874;-74
2021/07/13 01:29:38;;;;;;;11.00;4.07;;;20.40;71.10;;;23.08;58.53;100903.28;5000003;28;96815;-74
2021/07/13 01:32:12;;;;;;;7.75;3.10;;;20.30;71.00;;;23.10;58.51;100893.56;5016615;27;96730;-74
2021/07/13 01:34:52;;;;;;;4.70;2.58;;;20.30;71.00;;;23.08;58.67;100895.88;4999227;28;97895;-75
2021/07/13 01:37:24;;;;;;;5.22;2.38;;;20.30;71.10;;;23.02;58.65;100902.06;4998976;28;97646;-75
2021/07/13 01:39:55;;;;;;;9.57;2.80;;;20.30;71.10;;;23.05;58.86;100896.63;4998459;28;96923;-74
2021/07/13 01:42:26;;;;;;;4.55;2.60;;;20.30;71.10;;;23.03;58.73;100898.19;5000904;28;97704;-74
2021/07/13 01:45:04;;;;;;;7.93;2.45;;;20.30;71.10;;;23.00;59.12;100890.75;5001126;28;97001;-75
2021/07/13 01:47:36;;;;;;;7.00;4.22;;;20.30;71.10;;;23.02;59.06;100886.47;4962188;28;1177306;-75
2021/07/13 01:50:11;;;;;;;3.43;2.40;;;20.30;71.10;;;22.97;58.86;100895.03;5002914;28;96783;-75
2021/07/13 01:52:42;;;;;;;4.75;2.67;;;20.30;71.20;;;22.99;59.00;100898.16;5003560;28;97723;-74
2021/07/13 01:55:15;;;;;;;2.50;2.30;;;20.30;71.20;;;22.85;59.18;100891.81;5001056;28;96929;-74
2021/07/13 01:57:46;;;;;;;14.90;5.55;;;20.30;71.20;;;22.86;59.41;100894.16;5000341;28;96834;-74
2021/07/13 02:00:17;;;;;;;5.82;1.60;;;20.20;71.20;;;22.82;59.16;100890.63;5002777;28;96990;-75
2021/07/13 02:02:48;;;;;;;5.57;2.22;;;20.20;71.30;;;22.83;59.09;100885.94;5032803;27;96814;-75
2021/07/13 02:05:21;;;;;;;5.55;2.90;;;20.20;71.30;;;22.84;59.19;100891.03;4999954;28;98946;-74
2021/07/13 02:07:51;;;;;;;5.50;2.67;;;20.20;71.40;;;22.85;59.34;100880.88;5000407;28;97224;-74
2021/07/13 02:10:21;;;;;;;4.20;1.77;;;20.20;71.40;;;22.86;58.88;100880.50;4981794;28;96682;-75
2021/07/13 02:12:50;;;;;;;3.38;2.38;;;20.10;71.30;;;22.87;59.29;100882.06;5000986;28;96836;-74
2021/07/13 02:15:20;;;;;;;14.10;2.00;;;20.10;71.30;;;22.83;59.04;100873.06;5015141;27;96975;-75
2021/07/13 02:17:51;;;;;;;3.72;2.55;;;20.10;71.40;;;22.91;58.73;100869.19;5001941;28;96911;-75
2021/07/13 02:20:24;;;;;;;8.57;4.13;;;20.10;71.40;;;22.95;58.88;100869.22;5002801;28;96837;-75
2021/07/13 02:22:53;;;;;;;4.60;3.80;;;20.10;71.40;;;22.96;58.49;100859.88;5001500;28;97051;-75
2021/07/13 02:25:22;;;;;;;3.67;2.35;;;20.10;71.40;;;22.97;58.68;100861.44;4998179;28;98012;-74
2021/07/13 02:28:06;;;;;;;7.15;3.15;;;20.10;71.40;;;22.92;58.62;100862.56;4997404;28;96921;-74
2021/07/13 02:30:40;;;;;;;6.97;2.97;;;20.10;71.50;;;22.95;58.96;100861.03;5013778;27;96814;-74
2021/07/13 02:33:18;;;;;;;1.40;1.30;;;20.10;71.40;;;22.94;58.49;100859.47;5016765;27;96839;-74
2021/07/13 02:35:53;;;;;;;8.50;3.65;;;20.10;71.50;;;22.91;58.61;100850.06;4998007;28;96954;-74
2021/07/13 02:38:24;;;;;;;6.57;3.63;;;20.10;71.40;;;22.96;58.75;100846.97;4997628;28;98132;-74
2021/07/13 02:40:54;;;;;;;12.70;3.90;;;20.10;71.50;;;22.95;58.70;100850.09;4996362;28;96925;-74
2021/07/13 02:43:26;;;;;;;5.13;4.07;;;20.10;71.40;;;22.90;58.70;100843.03;5015810;27;96955;-75
2021/07/13 02:45:58;;;;;;;;;;;20.10;71.40;;;22.81;58.94;100841.81;5000670;28;98692;-75
2021/07/13 02:48:27;;;;;;;4.35;3.95;;;20.10;71.60;;;22.85;58.67;100842.63;4997152;28;97903;-74
2021/07/13 02:50:59;;;;;;;6.03;3.42;;;20.10;71.50;;;22.81;59.12;100841.81;4998229;28;97201;-74
2021/07/13 02:53:30;;;;;;;;;;;20.10;71.50;;;22.79;59.30;100844.13;5002649;28;96940;-74
2021/07/13 02:56:01;;;;;;;6.78;3.90;;;20.10;71.70;;;22.77;59.32;100844.53;4995905;28;97426;-75
2021/07/13 02:58:33;;;;;;;5.63;3.25;;;20.00;71.50;;;22.75;59.41;100840.59;5021713;28;96982;-74
2021/07/13 03:01:08;;;;;;;4.82;2.97;;;20.00;71.50;;;22.84;58.74;100841.06;4998607;28;96883;-74
2021/07/13 03:03:39;;;;;;;8.30;3.85;;;20.00;71.60;;;22.85;58.73;100837.16;5006411;28;97150;-74
2021/07/13 03:06:14;;;;;;;8.73;4.03;;;20.00;71.60;;;22.79;58.85;100835.94;5034467;27;97887;-74
2021/07/13 03:08:43;;;;;;;5.90;4.00;;;20.00;71.60;;;22.79;58.84;100828.53;5002484;28;97759;-74
2021/07/13 03:11:13;;;;;;;8.23;4.68;;;20.00;71.60;;;22.79;59.04;100834.00;5005913;28;96704;-74
2021/07/13 03:13:42;;;;;;;10.30;4.30;;;20.00;71.60;;;22.81;59.19;100830.88;5013106;27;97665;-74
2021/07/13 03:16:13;;;;;;;5.95;4.25;;;20.00;71.70;;;22.82;58.80;100830.50;4980721;28;98077;-74
2021/07/13 03:18:43;;;;;;;6.00;4.93;;;20.00;72.30;;;22.81;59.02;100837.13;5000515;28;97435;-74
2021/07/13 03:21:13;;;;;;;5.13;4.50;;;20.00;71.70;;;22.86;58.45;100833.28;5002094;28;97146;-74
2021/07/13 03:23:45;;;;;;;10.68;4.45;;;20.00;71.70;;;22.83;58.98;100831.31;4985450;28;97067;-74
2021/07/13 03:26:14;;;;;;;24.90;5.22;;;20.00;71.70;;;22.86;58.89;100827.81;5000499;28;97799;-74
2021/07/13 03:28:45;;;;;;;6.63;3.50;;;20.00;71.70;;;22.92;58.37;100835.25;4996105;28;97998;-75
2021/07/13 03:31:17;;;;;;;6.15;2.47;;;20.00;71.70;;;22.87;58.52;100829.38;5014399;27;97399;-74
2021/07/13 03:33:46;;;;;;;8.00;5.70;;;20.00;71.70;;;22.89;58.87;100827.03;4999757;28;96918;-75
2021/07/13 03:36:15;;;;;;;7.70;4.28;;;20.00;71.60;;;22.95;59.00;100825.50;4994068;28;97971;-74
2021/07/13 03:38:45;;;;;;;6.05;3.28;;;20.10;71.70;;;23.07;58.18;100842.38;4997404;28;97803;-74
2021/07/13 03:41:15;;;;;;;6.30;2.75;;;20.10;71.70;;;23.11;58.10;100831.47;4999788;28;96812;-74
2021/07/13 03:43:45;;;;;;;8.00;3.88;;;20.10;71.70;;;23.15;58.27;100835.03;4999365;28;97145;-74
2021/07/13 03:46:15;;;;;;;11.30;4.68;;;20.20;71.60;;;23.21;58.11;100833.50;5001415;28;98095;-74
2021/07/13 03:48:48;;;;;;;9.18;4.43;;;20.20;71.60;;;23.21;58.27;100828.78;4996534;28;97430;-73
2021/07/13 03:51:33;;;;;;;7.78;4.32;;;20.20;71.50;;;23.21;58.35;100830.75;4985318;28;97678;-73
2021/07/13 03:54:04;;;;;;;7.75;4.47;;;20.30;71.60;;;23.20;58.30;100831.94;4998944;28;97280;-73
2021/07/13 03:56:33;;;;;;;20.85;4.43;;;20.30;71.50;;;23.25;58.24;100826.84;5003439;28;97923;-73
2021/07/13 03:59:03;;;;;;;10.23;4.65;;;20.30;71.50;;;23.27;57.96;100829.22;5000238;28;96989;-74
2021/07/13 04:01:34;;;;;;;8.63;4.57;;;20.30;71.50;;;23.32;58.20;100834.31;4981708;28;96828;-74
2021/07/13 04:04:06;;;;;;;21.63;7.43;;;20.30;71.50;;;23.28;58.30;100837.03;5000524;28;97031;-73
2021/07/13 04:06:36;;;;;;;13.02;5.70;;;20.30;71.50;;;23.31;58.44;100843.69;4997207;28;97819;-74
2021/07/13 04:09:08;;;;;;;11.70;7.57;;;20.30;71.50;;;23.34;58.19;100835.50;4997231;28;97682;-73
2021/07/13 04:11:37;;;;;;;20.47;5.60;;;20.30;71.50;;;23.23;58.56;100844.81;4981023;28;96884;-74
2021/07/13 04:14:06;;;;;;;5.65;4.50;;;20.40;71.60;;;23.26;58.44;100841.31;5001576;28;97287;-74
2021/07/13 04:16:37;;;;;;;11.35;5.55;;;20.30;71.50;;;23.20;58.72;100837.41;4997025;28;98398;-73
2021/07/13 04:19:08;;;;;;;9.40;4.28;;;20.30;71.50;;;23.20;58.83;100843.63;4987644;28;99365;-73
2021/07/13 04:21:37;;;;;;;11.15;4.38;;;20.40;71.60;;;23.23;58.83;100833.88;4997155;28;96924;-74
2021/07/13 04:24:07;;;;;;;12.07;3.13;;;20.40;71.60;;;23.25;58.94;100839.75;4996669;28;97306;-73
2021/07/13 04:26:35;;;;;;;5.45;4.30;;;20.40;71.60;;;23.30;58.41;100847.59;4997616;28;96755;-74
2021/07/13 04:29:05;;;;;;;14.68;5.05;;;20.40;71.60;;;23.29;58.59;100848.75;5015469;27;97628;-74
2021/07/13 04:31:34;;;;;;;3.85;3.50;;;20.40;71.60;;;23.22;59.02;100852.22;4995305;28;98016;-74
2021/07/13 04:34:09;;;;;;;7.10;4.90;;;20.40;71.60;;;23.26;58.93;100844.06;4998431;28;96960;-74
2021/07/13 04:36:39;;;;;;;9.98;4.72;;;20.40;71.70;;;23.22;59.14;100854.19;4996379;28;96867;-74
2021/07/13 04:39:10;;;;;;;16.17;7.43;;;20.40;71.60;;;23.22;58.79;100848.72;4998114;28;97366;-74
2021/07/13 04:41:39;;;;;;;10.00;6.15;;;20.40;71.70;;;23.21;59.15;100844.44;5001609;28;96911;-74
2021/07/13 04:44:08;;;;;;;4.53;4.07;;;20.40;71.70;;;23.20;58.95;100843.63;4999604;28;97084;-74
2021/07/13 04:46:37;;;;;;;7.43;5.43;;;20.40;71.70;;;23.22;59.23;100843.25;5001038;28;98084;-74
2021/07/13 04:49:08;;;;;;;14.32;4.30;;;20.40;71.70;;;23.29;58.95;100837.81;5000157;28;97655;-74
2021/07/13 04:51:37;;;;;;;7.63;4.35;;;20.40;71.70;;;23.30;58.97;100842.91;5003766;28;97580;-74
2021/07/13 04:54:06;;;;;;;10.60;3.72;;;20.50;71.80;;;23.34;58.89;100848.38;5015099;27;96914;-75
2021/07/13 04:56:35;;;;;;;8.40;5.30;;;20.40;71.70;;;23.34;58.75;100857.38;4999911;28;97255;-74
2021/07/13 04:59:04;;;;;;;6.18;3.03;;;20.40;71.80;;;23.34;58.61;100856.59;5000242;28;97860;-74
2021/07/13 05:01:33;;;;;;;10.25;5.35;;;20.40;71.80;;;23.37;58.79;100856.63;5000284;28;97241;-74
2021/07/13 05:04:04;;;;;;;10.23;4.05;;;20.40;71.80;;;23.39;58.65;100856.22;5001719;28;96896;-74
2021/07/13 05:06:36;;;;;;;7.35;5.18;;;20.50;71.90;;;23.43;58.56;100866.00;4999817;28;97117;-74
2021/07/13 05:09:05;;;;;;;15.02;4.70;;;20.50;71.90;;;23.41;58.61;100860.16;4999013;28;96816;-74
2021/07/13 05:11:34;;;;;;;7.22;3.60;;;20.40;71.80;;;23.44;58.43;100864.06;5004383;28;96717;-74
2021/07/13 05:14:05;;;;;;;11.73;4.75;;;20.50;71.90;;;23.44;58.59;100866.81;5007601;28;96944;-74
2021/07/13 05:16:34;;;;;;;9.60;5.10;;;20.50;71.90;;;23.39;58.83;100867.94;4998739;28;96968;-74
2021/07/13 05:19:06;;;;;;;4.85;3.85;;;20.50;71.90;;;23.42;59.01;100867.19;5001553;28;97984;-74
2021/07/13 05:21:38;;;;;;;10.88;4.03;;;20.50;71.90;;;23.40;58.74;100866.78;5000538;28;96724;-74
2021/07/13 05:24:07;;;;;;;13.73;6.13;;;20.50;71.90;;;23.40;58.76;100871.44;5014955;27;97116;-74
2021/07/13 05:26:36;;;;;;;9.38;4.05;;;20.50;71.90;;;23.35;59.33;100875.34;4999680;28;97830;-74
2021/07/13 05:29:08;;;;;;;6.45;4.55;;;20.50;71.90;;;23.38;58.66;100868.31;5019065;27;98046;-74
2021/07/13 05:31:37;;;;;;;6.95;5.45;;;20.50;71.90;;;23.36;58.83;100867.94;5001420;28;96877;-74
2021/07/13 05:34:05;;;;;;;8.32;4.20;;;20.50;71.90;;;23.40;58.80;100869.53;5001758;28;97149;-73
2021/07/13 05:36:35;;;;;;;10.65;3.90;;;20.50;71.90;;;23.47;58.84;100861.34;4999008;28;98210;-74
2021/07/13 05:39:09;;;;;;;7.47;3.70;;;20.50;71.90;;;23.46;58.63;100867.22;4998494;28;97016;-74
2021/07/13 05:41:39;;;;;;;9.73;4.15;;;20.50;72.00;;;23.45;58.99;100871.13;5031654;27;97368;-74
2021/07/13 05:44:08;;;;;;;3.25;3.03;;;20.50;71.90;;;23.46;59.08;100867.97;5020153;27;97057;-74
2021/07/13 05:46:36;;;;;;;18.60;4.82;;;20.50;72.00;;;23.46;58.99;100878.91;4999888;28;99311;-74
2021/07/13 05:49:05;;;;;;;7.80;3.45;;;20.50;72.00;;;23.48;59.09;100878.53;4999105;28;96793;-74
2021/07/13 05:51:34;;;;;;;12.32;5.78;;;20.60;72.00;;;23.46;59.05;100869.94;5004830;28;96796;-74
2021/07/13 05:54:05;;;;;;;11.13;4.32;;;20.60;72.00;;;23.52;58.73;100876.59;5020095;27;96981;-74
2021/07/13 05:56:34;;;;;;;10.38;6.07;;;20.50;72.00;;;23.54;58.80;100880.50;4998905;28;100212;-74
2021/07/13 05:59:05;;;;;;;6.38;5.05;;;20.60;72.00;;;23.51;58.93;100880.50;5032335;27;96998;-74
2021/07/13 06:01:34;;;;;;;3.95;1.70;;;20.60;72.10;;;23.58;58.33;100886.81;5014962;28;96839;-74
2021/07/13 06:04:06;;;;;;;12.73;4.50;;;20.60;72.10;;;23.52;58.79;100887.53;5001411;28;97009;-74
2021/07/13 06:06:35;;;;;;;3.90;3.47;;;20.60;72.10;;;23.51;59.08;100885.97;4999802;28;96872;-74
2021/07/13 06:09:06;;;;;;;10.77;4.70;;;20.60;72.10;;;23.51;59.02;100892.22;5002527;28;97629;-73
2021/07/13 06:11:35;;;;;;;22.27;6.28;;;20.60;72.10;;;;;;5013300;27;96803;-73
2021/07/13 06:14:05;;;;;;;6.93;3.83;;;20.60;72.10;;;23.52;59.05;100898.50;5031727;27;96946;-73
2021/07/13 06:16:36;;;;;;;30.55;5.47;;;20.60;72.10;;;23.52;58.99;100903.97;4997307;28;97120;-73
2021/07/13 06:19:05;;;;;;;6.65;2.60;;;20.60;72.10;;;23.57;59.13;100909.06;4997802;28;100565;-73
2021/07/13 06:21:34;;;;;;;8.88;4.22;;;20.60;72.10;;;23.55;58.87;100922.34;5000056;28;96746;-72
2021/07/13 06:24:06;;;;;;;8.02;5.20;;;20.60;72.20;;;23.55;58.91;100922.34;5001867;28;97360;-74
2021/07/13 06:26:35;;;;;;;6.33;4.00;;;20.60;72.20;;;23.61;58.71;100915.31;4998353;28;97190;-73
2021/07/13 06:29:05;;;;;;;7.45;4.85;;;20.60;72.20;;;23.59;58.76;100913.00;4988743;28;97006;-72
2021/07/13 06:31:34;;;;;;;2.30;1.38;;;20.60;72.20;;;23.62;58.78;100914.97;4999863;28;96929;-72
2021/07/13 06:34:03;;;;;;;9.25;3.92;;;20.60;72.30;;;23.65;58.67;100927.88;5001386;28;96921;-72
2021/07/13 06:36:32;;;;;;;3.97;3.58;;;20.60;72.30;;;23.63;58.56;100926.66;4996715;28;97952;-73
2021/07/13 06:39:01;;;;;;;8.52;4.25;;;20.60;72.30;;;23.77;58.71;100922.03;5015293;27;96979;-73
2021/07/13 06:41:33;;;;;;;8.65;3.90;;;20.70;72.40;;;23.86;58.54;100930.69;5013281;28;97572;-73
2021/07/13 06:44:04;;;;;;;7.28;2.85;;;20.70;72.30;;;23.88;58.30;100927.59;4984628;28;98278;-73
2021/07/13 06:46:34;;;;;;;12.07;4.72;;;20.70;72.20;;;23.95;58.20;100933.88;4996654;28;98322;-73
2021/07/13 06:49:04;;;;;;;6.65;3.55;;;20.80;72.20;;;24.02;58.29;100929.22;4996352;28;98772;-73
2021/07/13 06:51:33;;;;;;;9.80;4.30;;;20.80;72.20;;;24.14;58.13;100933.53;4998460;28;96840;-73
2021/07/13 06:54:04;;;;;;;11.23;5.20;;;20.90;72.20;;;24.13;57.89;100940.97;5016838;27;97350;-74
2021/07/13 06:56:36;;;;;;;9.68;3.33;;;20.90;72.10;;;24.10;58.28;100930.78;5015815;27;97464;-73
2021/07/13 06:59:04;;;;;;;8.27;3.50;;;21.00;72.10;;;24.19;58.18;100941.38;4997905;28;97772;-73
2021/07/13 07:01:34;;;;;;;7.43;3.58;;;21.00;72.00;;;24.27;57.94;100945.69;5013089;27;96879;-74
2021/07/13 07:04:06;;;;;;;18.40;4.82;;;21.00;72.00;;;24.34;57.96;100948.44;5000005;28;97398;-73
2021/07/13 07:06:34;;;;;;;17.27;5.38;;;21.10;72.00;;;24.45;57.51;100941.81;5016796;27;96960;-73
2021/07/13 07:09:04;;;;;;;19.20;5.13;;;21.20;72.00;;;24.53;57.50;100940.69;4985306;28;98861;-73
2021/07/13 07:11:34;;;;;;;3.70;2.72;;;21.20;71.80;;;24.61;57.69;100944.97;4999145;28;97273;-74
2021/07/13 07:14:04;;;;;;;3.22;2.40;;;21.30;71.80;;;24.63;57.44;100939.13;4988163;28;97030;-74
2021/07/13 07:16:33;;;;;;;8.07;2.85;;;21.40;71.80;;;24.60;58.04;100939.91;4997830;28;97904;-74
2021/07/13 07:19:04;;;;;;;8.88;3.67;;;21.40;71.70;;;24.60;57.58;100943.41;5034324;27;97710;-74
2021/07/13 07:21:33;;;;;;;3.20;1.88;;;21.40;72.30;;;24.61;57.72;100944.22;5006482;28;97434;-73
2021/07/13 07:24:03;;;;;;;6.43;3.33;;;21.50;71.80;;;24.68;57.49;100941.47;4982451;28;97014;-74
2021/07/13 07:26:32;;;;;;;8.90;4.95;;;21.50;71.70;;;24.74;57.60;100943.44;5014359;27;97930;-73
2021/07/13 07:29:05;;;;;;;12.65;4.05;;;21.50;71.60;;;24.80;57.65;100950.09;5017658;27;96899;-74
2021/07/13 07:31:34;;;;;;;7.15;3.53;;;21.50;71.60;;;24.85;57.39;100938.72;5002278;28;97508;-74
2021/07/13 07:34:04;;;;;;;6.50;2.55;;;21.60;71.60;;;24.89;57.46;100952.44;5002156;28;96905;-74
2021/07/13 07:36:33;;;;;;;9.32;2.75;;;21.60;71.60;;;24.89;58.10;100947.72;5003679;28;97217;-74
2021/07/13 07:39:04;;;;;;;4.20;3.78;;;21.70;72.30;;;24.90;57.98;100952.03;5000528;28;97743;-74
2021/07/13 07:41:33;;;;;;;2.60;2.40;;;21.70;71.60;;;24.99;57.30;100952.44;4999870;28;96781;-74
2021/07/13 07:44:04;;;;;;;7.70;2.30;;;21.80;71.60;;;25.06;57.07;100957.91;4996151;28;97221;-74
2021/07/13 07:46:33;;;;;;;5.65;3.13;;;21.80;71.50;;;25.13;56.94;100957.91;4997443;28;97890;-74
2021/07/13 07:49:04;;;;;;;2.47;1.80;;;21.90;71.50;;;25.12;57.09;100950.84;4999118;28;96881;-74
2021/07/13 07:51:33;;;;;;;1.75;1.65;;;21.90;71.40;;;25.07;57.62;100956.75;4998864;28;97389;-74
2021/07/13 07:54:04;;;;;;;4.63;3.10;;;21.90;71.40;;;25.18;57.06;100946.56;4988266;28;97073;-74
2021/07/13 07:56:35;;;;;;;3.80;2.60;;;21.90;71.40;;;25.22;57.25;100947.38;5016377;28;98884;-74
2021/07/13 07:59:08;;;;;;;5.00;3.33;;;22.00;71.40;;;25.25;57.34;100952.06;4997867;28;97778;-74
2021/07/13 08:01:37;;;;;;;3.35;2.95;;;22.00;71.30;;;25.30;56.77;100954.41;4998219;28;96818;-73
2021/07/13 08:04:06;;;;;;;14.05;3.60;;;22.10;71.30;;;25.31;57.43;100953.22;5017267;28;96914;-74
2021/07/13 08:06:34;;;;;;;6.55;2.55;;;22.10;71.30;;;25.29;57.32;100944.59;4999979;28;97207;-74
2021/07/13 08:09:07;;;;;;;3.90;2.72;;;22.10;71.30;;;25.31;57.15;100953.22;5000419;28;97714;-74
2021/07/13 08:11:35;;;;;;;10.60;3.53;;;22.10;71.30;;;25.18;57.42;100938.31;4997166;28;99696;-74
2021/07/13 08:14:06;;;;;;;5.25;2.33;;;22.10;71.40;;;25.09;58.30;100939.91;4997270;28;96887;-74
2021/07/13 08:16:37;;;;;;;7.43;2.70;;;22.10;71.50;;;25.11;58.04;100938.31;5012795;27;97424;-74
2021/07/13 08:19:06;;;;;;;2.25;2.08;;;22.10;71.50;;;25.10;58.25;100936.75;5012825;27;97322;-74
2021/07/13 08:21:38;;;;;;;4.53;2.65;;;22.10;71.50;;;25.11;57.63;100941.06;5001390;28;96922;-74
2021/07/13 08:24:08;;;;;;;2.72;1.95;;;22.10;71.50;;;25.10;57.98;100925.00;5001907;28;97349;-74
2021/07/13 08:26:37;;;;;;;6.03;2.80;;;22.20;71.50;;;25.15;58.30;100933.59;5016258;27;97079;-75
2021/07/13 08:29:08;;;;;;;3.33;2.85;;;22.10;71.50;;;25.14;58.18;100929.28;5000549;28;97026;-75
2021/07/13 08:31:37;;;;;;;6.75;2.63;;;22.10;71.50;;;25.24;57.68;100923.06;5030279;27;97639;-75
2021/07/13 08:34:06;;;;;;;8.32;2.85;;;22.20;71.50;;;25.29;57.89;100924.59;4999696;28;97487;-75
2021/07/13 08:36:39;;;;;;;2.83;1.40;;;22.20;71.50;;;25.27;58.34;100921.47;4996465;28;97877;-75
2021/07/13 08:39:08;;;;;;;4.40;2.95;;;22.20;71.50;;;25.33;57.80;100923.41;4997430;28;97852;-75
2021/07/13 08:41:37;;;;;;;9.32;2.72;;;22.20;71.50;;;25.28;58.22;100923.84;5000757;28;96893;-74
2021/07/13 08:44:08;;;;;;;1.30;1.20;;;22.20;71.50;;;25.32;57.78;100930.09;5020013;27;97367;-74
2021/07/13 08:46:39;;;;;;;3.42;3.13;;;22.20;71.60;;;25.32;57.49;100926.53;5000933;28;96864;-73
2021/07/13 08:49:12;;;;;;;6.47;2.72;;;22.20;71.60;;;25.21;58.02;100928.53;5001504;28;96875;-73
2021/07/13 08:51:43;;;;;;;9.60;3.40;;;22.20;72.30;;;25.17;58.06;100928.53;5000193;28;97353;-74
2021/07/13 08:54:12;;;;;;;7.63;4.88;;;22.10;71.70;;;25.18;58.09;100927.34;5005852;28;97103;-74
2021/07/13 08:56:41;;;;;;;3.25;2.15;;;22.10;71.70;;;25.29;57.96;100930.88;5000898;28;97858;-74
2021/07/13 08:59:11;;;;;;;5.10;3.47;;;22.10;71.80;;;25.27;58.34;100926.94;4990297;28;98207;-74
2021/07/13 09:01:40;;;;;;;5.93;3.20;;;22.20;71.80;;;25.31;57.92;100925.78;5021003;27;96847;-74
2021/07/13 09:04:09;;;;;;;4.40;2.90;;;22.20;71.80;;;25.33;58.31;100920.69;5003336;28;97111;-74
2021/07/13 09:06:55;;;;;;;4.15;3.00;;;22.20;71.80;;;25.43;57.85;100925.34;5015458;27;97571;-74
2021/07/13 09:09:27;;;;;;;2.85;2.08;;;22.20;71.90;;;25.55;57.63;100927.69;5003803;28;98866;-74
2021/07/13 09:12:14;;;;;;;3.15;2.38;;;22.30;71.80;;;25.58;57.62;100932.38;5015500;27;99244;-74
2021/07/13 09:14:57;;;;;;;5.13;2.90;;;22.30;71.90;;;25.57;57.53;100933.53;5000343;28;97383;-74
2021/07/13 09:17:47;;;;;;;5.63;4.07;;;22.40;71.80;;;25.68;57.48;100943.31;4986502;28;97349;-74
2021/07/13 09:20:23;;;;;;;5.65;1.92;;;22.40;71.70;;;25.86;57.35;100943.28;4999412;28;96929;-74
2021/07/13 09:22:59;;;;;;;4.80;3.05;;;22.50;71.60;;;25.90;57.05;100946.78;5003873;28;97003;-74
2021/07/13 09:25:36;;;;;;;3.42;2.33;;;22.50;71.50;;;25.93;56.39;100952.25;4985805;28;96912;-74
2021/07/13 09:28:14;;;;;;;2.33;2.05;;;22.60;71.50;;;26.04;56.52;100946.69;5017566;27;96993;-74
2021/07/13 09:30:48;;;;;;;3.25;2.33;;;22.60;71.40;;;26.07;56.95;100952.19;5001467;28;97717;-75
2021/07/13 09:33:22;;;;;;;9.48;4.50;;;22.70;71.30;;;25.99;57.02;100960.84;5000204;28;97536;-74
2021/07/13 09:36:06;;;;;;;6.70;3.22;;;22.70;71.20;;;25.92;56.88;100953.41;5035227;27;97441;-74
2021/07/13 09:38:40;;;;;;;5.68;2.88;;;22.70;71.30;;;25.81;57.24;100947.16;5013292;28;98266;-74
2021/07/13 09:41:14;;;;;;;6.85;3.58;;;22.70;71.30;;;25.67;57.92;100951.94;5003661;28;97816;-74
2021/07/13 09:43:48;;;;;;;2.92;2.13;;;22.60;71.30;;;25.68;57.94;100948.00;5003244;28;97026;-74
2021/07/13 09:46:29;;;;;;;6.03;3.97;;;22.60;71.50;;;25.96;56.92;100945.16;5019651;27;97511;-73
2021/07/13 09:49:24;;;;;;;6.60;3.78;;;22.70;71.50;;;26.35;56.08;100943.78;5032477;27;97823;-74
2021/07/13 09:52:00;;;;;;;5.55;2.33;;;22.80;71.40;;;26.67;55.58;100944.38;4992023;28;97854;-73
2021/07/13 09:54:40;;;;;;;6.90;3.58;;;23.00;71.00;;;26.85;55.44;100944.22;5001225;28;96819;-73
2021/07/13 09:57:19;;;;;;;2.95;2.72;;;23.20;70.80;;;27.07;55.18;100945.59;5000946;28;97472;-73
2021/07/13 09:59:50;;;;;;;6.05;2.85;;;23.30;70.70;;;27.28;54.94;100955.22;5001335;28;97915;-73
2021/07/13 10:02:25;;;;;;;15.30;4.53;;;23.50;70.40;;;27.37;54.82;100955.53;5000688;28;96793;-73
2021/07/13 10:04:57;;;;;;;6.40;3.42;;;23.70;70.20;;;27.45;54.84;100958.97;5034395;27;96995;-73
2021/07/13 10:07:30;;;;;;;2.37;2.17;;;23.80;70.10;;;27.35;55.15;100952.41;5035573;27;97064;-74
2021/07/13 10:10:05;;;;;;;9.98;3.72;;;23.90;70.10;;;27.33;55.39;100952.03;5001932;28;97845;-74
2021/07/13 10:12:35;;;;;;;60.25;4.07;;;23.90;70.00;;;27.22;55.75;100952.53;5000648;28;97779;-74
2021/07/13 10:15:07;;;;;;;5.93;3.33;;;23.90;70.00;;;27.27;55.62;100950.91;5002261;28;96726;-74
2021/07/13 10:17:39;;;;;;;10.23;4.18;;;23.90;70.00;;;27.51;55.27;100955.38;5000317;28;96964;-74
2021/07/13 10:20:11;;;;;;;5.63;3.63;;;24.00;70.10;;;27.63;55.31;100962.31;4996499;28;97947;-74
2021/07/13 10:22:44;;;;;;;2.03;1.42;;;24.10;70.00;;;27.76;54.99;100957.84;4998330;28;97710;-74
2021/07/13 10:25:13;;;;;;;4.90;2.63;;;24.20;70.00;;;27.85;54.90;100958.16;4983453;28;96703;-74
2021/07/13 10:27:52;;;;;;;7.65;3.17;;;24.30;69.90;;;27.97;54.84;100954.84;4988541;28;96826;-74
2021/07/13 10:30:38;;;;;;;10.50;3.85;;;24.40;69.90;;;28.19;54.74;100959.66;5000037;28;96886;-74
2021/07/13 10:33:29;;;;;;;5.78;2.50;;;24.50;69.90;;;28.70;53.51;100953.81;5000570;28;98578;-74